sensor_id;sensor_type;location;lat;lon;timestamp;temperature;humidity
6106;DHT22;3083;51.508;7.966;2023-09-08T00:00:13;16.30;99.90
6106;DHT22;3083;51.508;7.966;2023-09-08T00:02:40;16.20;99.90
6106;DHT22;3083;51.508;7.966;2023-09-08T00:05:07;16.20;99.90
6106;DHT22;3083;51.508;7.966;2023-09-08T00:07:34;16.20;99.90
6106;DHT22;3083;51.508;7.966;2023-09-08T00:10:01;16.10;99.90
6106;DHT22;3083;51.508;7.966;2023-09-08T00:12:29;16.10;99.90
6106;DHT22;3083;51.508;7.966;2023-09-08T00:14:56;16.10;99.90
6106;DHT22;3083;51.508;7.966;2023-09-08T00:17:23;16.10;99.90
6106;DHT22;3083;51.508;7.966;2023-09-08T00:19:49;16.10;99.90
6106;DHT22;3083;51.508;7.966;2023-09-08T00:22:17;16.10;99.90
6106;DHT22;3083;51.508;7.966;2023-09-08T00:24:44;16.20;99.90
6106;DHT22;3083;51.508;7.966;2023-09-08T00:27:10;16.20;99.90
6106;DHT22;3083;51.508;7.966;2023-09-08T00:29:39;16.10;99.90
6106;DHT22;3083;51.508;7.966;2023-09-08T00:32:06;16.20;99.90
6106;DHT22;3083;51.508;7.966;2023-09-08T00:34:32;16.20;99.90
6106;DHT22;3083;51.508;7.966;2023-09-08T00:36:59;16.20;99.90
6106;DHT22;3083;51.508;7.966;2023-09-08T00:39:34;16.20;99.90
6106;DHT22;3083;51.508;7.966;2023-09-08T00:42:01;16.10;99.90
6106;DHT22;3083;51.508;7.966;2023-09-08T00:44:27;16.00;99.90
6106;DHT22;3083;51.508;7.966;2023-09-08T00:46:56;16.00;99.90
6106;DHT22;3083;51.508;7.966;2023-09-08T00:49:23;16.00;99.90
6106;DHT22;3083;51.508;7.966;2023-09-08T00:51:50;16.00;99.90
6106;DHT22;3083;51.508;7.966;2023-09-08T00:54:18;15.90;99.90
6106;DHT22;3083;51.508;7.966;2023-09-08T00:56:45;15.90;99.90
6106;DHT22;3083;51.508;7.966;2023-09-08T00:59:13;15.90;99.90
6106;DHT22;3083;51.508;7.966;2023-09-08T01:01:40;15.80;99.90
6106;DHT22;3083;51.508;7.966;2023-09-08T01:04:08;15.80;99.90
6106;DHT22;3083;51.508;7.966;2023-09-08T01:06:35;15.70;99.90
6106;DHT22;3083;51.508;7.966;2023-09-08T01:09:03;15.80;99.90
6106;DHT22;3083;51.508;7.966;2023-09-08T01:11:31;15.70;99.90
6106;DHT22;3083;51.508;7.966;2023-09-08T01:13:58;15.70;99.90
6106;DHT22;3083;51.508;7.966;2023-09-08T01:16:25;15.60;99.90
6106;DHT22;3083;51.508;7.966;2023-09-08T01:18:52;15.60;99.90
6106;DHT22;3083;51.508;7.966;2023-09-08T01:21:40;15.60;99.90
6106;DHT22;3083;51.508;7.966;2023-09-08T01:24:21;15.50;99.90
6106;DHT22;3083;51.508;7.966;2023-09-08T01:26:55;15.60;99.90
6106;DHT22;3083;51.508;7.966;2023-09-08T01:29:22;15.60;99.90
6106;DHT22;3083;51.508;7.966;2023-09-08T01:31:50;15.60;99.90
6106;DHT22;3083;51.508;7.966;2023-09-08T01:34:18;15.60;99.90
6106;DHT22;3083;51.508;7.966;2023-09-08T01:36:45;15.50;99.90
6106;DHT22;3083;51.508;7.966;2023-09-08T01:39:12;15.50;99.90
6106;DHT22;3083;51.508;7.966;2023-09-08T01:41:39;15.40;99.90
6106;DHT22;3083;51.508;7.966;2023-09-08T01:44:07;15.50;99.90
6106;DHT22;3083;51.508;7.966;2023-09-08T01:46:35;15.50;99.90
6106;DHT22;3083;51.508;7.966;2023-09-08T01:49:04;15.60;99.90
6106;DHT22;3083;51.508;7.966;2023-09-08T01:51:30;15.50;99.90
6106;DHT22;3083;51.508;7.966;2023-09-08T01:53:57;15.50;99.90
6106;DHT22;3083;51.508;7.966;2023-09-08T01:56:24;15.50;99.90
6106;DHT22;3083;51.508;7.966;2023-09-08T01:58:51;15.40;99.90
6106;DHT22;3083;51.508;7.966;2023-09-08T02:01:19;15.40;99.90
6106;DHT22;3083;51.508;7.966;2023-09-08T02:03:46;15.40;99.90
6106;DHT22;3083;51.508;7.966;2023-09-08T02:06:13;15.30;99.90
6106;DHT22;3083;51.508;7.966;2023-09-08T02:08:40;15.30;99.90
6106;DHT22;3083;51.508;7.966;2023-09-08T02:11:07;15.30;99.90
6106;DHT22;3083;51.508;7.966;2023-09-08T02:13:34;15.30;99.90
6106;DHT22;3083;51.508;7.966;2023-09-08T02:16:01;15.30;99.90
6106;DHT22;3083;51.508;7.966;2023-09-08T02:18:29;15.30;99.90
6106;DHT22;3083;51.508;7.966;2023-09-08T02:20:55;15.20;99.90
6106;DHT22;3083;51.508;7.966;2023-09-08T02:23:22;15.20;99.90
6106;DHT22;3083;51.508;7.966;2023-09-08T02:25:49;15.10;99.90
6106;DHT22;3083;51.508;7.966;2023-09-08T02:28:16;15.00;99.90
6106;DHT22;3083;51.508;7.966;2023-09-08T02:30:43;15.00;99.90
6106;DHT22;3083;51.508;7.966;2023-09-08T02:33:10;14.90;99.90
6106;DHT22;3083;51.508;7.966;2023-09-08T02:35:38;14.90;99.90
6106;DHT22;3083;51.508;7.966;2023-09-08T02:38:05;14.90;99.90
6106;DHT22;3083;51.508;7.966;2023-09-08T02:40:32;14.90;99.90
6106;DHT22;3083;51.508;7.966;2023-09-08T02:43:00;14.90;99.90
6106;DHT22;3083;51.508;7.966;2023-09-08T02:45:27;14.90;99.90
6106;DHT22;3083;51.508;7.966;2023-09-08T02:47:54;15.00;99.90
6106;DHT22;3083;51.508;7.966;2023-09-08T02:50:21;15.00;99.90
6106;DHT22;3083;51.508;7.966;2023-09-08T02:52:50;14.90;99.90
6106;DHT22;3083;51.508;7.966;2023-09-08T02:55:16;14.90;99.90
6106;DHT22;3083;51.508;7.966;2023-09-08T02:57:43;14.90;99.90
6106;DHT22;3083;51.508;7.966;2023-09-08T03:00:11;15.00;99.90
6106;DHT22;3083;51.508;7.966;2023-09-08T03:02:38;15.10;99.90
6106;DHT22;3083;51.508;7.966;2023-09-08T03:05:05;15.10;99.90
6106;DHT22;3083;51.508;7.966;2023-09-08T03:07:32;15.20;99.90
6106;DHT22;3083;51.508;7.966;2023-09-08T03:10:06;15.30;99.90
6106;DHT22;3083;51.508;7.966;2023-09-08T03:12:33;15.30;99.90
6106;DHT22;3083;51.508;7.966;2023-09-08T03:15:01;15.30;99.90
6106;DHT22;3083;51.508;7.966;2023-09-08T03:17:28;15.30;99.90
6106;DHT22;3083;51.508;7.966;2023-09-08T03:19:55;15.30;99.90
6106;DHT22;3083;51.508;7.966;2023-09-08T03:22:21;15.20;99.90
6106;DHT22;3083;51.508;7.966;2023-09-08T03:24:50;15.20;99.90
6106;DHT22;3083;51.508;7.966;2023-09-08T03:27:19;15.10;99.90
6106;DHT22;3083;51.508;7.966;2023-09-08T03:29:46;15.10;99.90
6106;DHT22;3083;51.508;7.966;2023-09-08T03:32:12;15.10;99.90
6106;DHT22;3083;51.508;7.966;2023-09-08T03:34:39;15.00;99.90
6106;DHT22;3083;51.508;7.966;2023-09-08T03:37:06;15.00;99.90
6106;DHT22;3083;51.508;7.966;2023-09-08T03:39:33;15.00;99.90
6106;DHT22;3083;51.508;7.966;2023-09-08T03:42:01;15.00;99.90
6106;DHT22;3083;51.508;7.966;2023-09-08T03:44:29;15.00;99.90
6106;DHT22;3083;51.508;7.966;2023-09-08T03:46:56;15.00;99.90
6106;DHT22;3083;51.508;7.966;2023-09-08T03:49:23;15.00;99.90
6106;DHT22;3083;51.508;7.966;2023-09-08T03:51:49;15.00;99.90
6106;DHT22;3083;51.508;7.966;2023-09-08T03:54:16;14.90;99.90
6106;DHT22;3083;51.508;7.966;2023-09-08T03:56:43;14.90;99.90
6106;DHT22;3083;51.508;7.966;2023-09-08T03:59:10;14.80;99.90
6106;DHT22;3083;51.508;7.966;2023-09-08T04:01:38;14.70;99.90
6106;DHT22;3083;51.508;7.966;2023-09-08T04:04:05;14.70;99.90
6106;DHT22;3083;51.508;7.966;2023-09-08T04:06:32;14.60;99.90
6106;DHT22;3083;51.508;7.966;2023-09-08T04:08:58;14.60;99.90
6106;DHT22;3083;51.508;7.966;2023-09-08T04:11:25;14.60;99.90
6106;DHT22;3083;51.508;7.966;2023-09-08T04:13:52;14.70;99.90
6106;DHT22;3083;51.508;7.966;2023-09-08T04:16:19;14.80;99.90
6106;DHT22;3083;51.508;7.966;2023-09-08T04:18:47;14.80;99.90
6106;DHT22;3083;51.508;7.966;2023-09-08T04:21:14;14.90;99.90
6106;DHT22;3083;51.508;7.966;2023-09-08T04:23:41;14.90;99.90
6106;DHT22;3083;51.508;7.966;2023-09-08T04:26:08;14.90;99.90
6106;DHT22;3083;51.508;7.966;2023-09-08T04:28:34;15.00;99.90
6106;DHT22;3083;51.508;7.966;2023-09-08T04:31:01;15.00;99.90
6106;DHT22;3083;51.508;7.966;2023-09-08T04:33:29;15.00;99.90
6106;DHT22;3083;51.508;7.966;2023-09-08T04:35:57;15.10;99.90
6106;DHT22;3083;51.508;7.966;2023-09-08T04:38:24;15.00;99.90
6106;DHT22;3083;51.508;7.966;2023-09-08T04:40:50;15.10;99.90
6106;DHT22;3083;51.508;7.966;2023-09-08T04:43:17;15.10;99.90
6106;DHT22;3083;51.508;7.966;2023-09-08T04:45:45;15.00;99.90
6106;DHT22;3083;51.508;7.966;2023-09-08T04:48:12;15.00;99.90
6106;DHT22;3083;51.508;7.966;2023-09-08T04:50:38;15.00;99.90
6106;DHT22;3083;51.508;7.966;2023-09-08T04:53:07;15.00;99.90
6106;DHT22;3083;51.508;7.966;2023-09-08T04:55:33;14.90;99.90
6106;DHT22;3083;51.508;7.966;2023-09-08T04:58:02;14.90;99.90
6106;DHT22;3083;51.508;7.966;2023-09-08T05:00:28;14.90;99.90
6106;DHT22;3083;51.508;7.966;2023-09-08T05:02:56;14.90;99.90
6106;DHT22;3083;51.508;7.966;2023-09-08T05:05:22;14.90;99.90
6106;DHT22;3083;51.508;7.966;2023-09-08T05:07:49;14.90;99.90
6106;DHT22;3083;51.508;7.966;2023-09-08T05:10:18;14.90;99.90
6106;DHT22;3083;51.508;7.966;2023-09-08T05:12:46;14.90;99.90
6106;DHT22;3083;51.508;7.966;2023-09-08T05:15:14;14.80;99.90
6106;DHT22;3083;51.508;7.966;2023-09-08T05:17:42;14.80;99.90
6106;DHT22;3083;51.508;7.966;2023-09-08T05:20:09;14.80;99.90
6106;DHT22;3083;51.508;7.966;2023-09-08T05:22:36;14.80;99.90
6106;DHT22;3083;51.508;7.966;2023-09-08T05:25:04;14.90;99.90
6106;DHT22;3083;51.508;7.966;2023-09-08T05:27:32;14.90;99.90
6106;DHT22;3083;51.508;7.966;2023-09-08T05:29:59;15.10;99.90
6106;DHT22;3083;51.508;7.966;2023-09-08T05:32:26;15.20;99.90
6106;DHT22;3083;51.508;7.966;2023-09-08T05:34:53;15.40;99.90
6106;DHT22;3083;51.508;7.966;2023-09-08T05:37:19;15.50;99.90
6106;DHT22;3083;51.508;7.966;2023-09-08T05:39:46;15.80;99.90
6106;DHT22;3083;51.508;7.966;2023-09-08T05:42:13;15.90;99.90
6106;DHT22;3083;51.508;7.966;2023-09-08T05:44:41;16.10;99.90
6106;DHT22;3083;51.508;7.966;2023-09-08T05:47:08;16.20;99.90
6106;DHT22;3083;51.508;7.966;2023-09-08T05:49:35;16.40;99.90
6106;DHT22;3083;51.508;7.966;2023-09-08T05:52:02;16.60;99.90
6106;DHT22;3083;51.508;7.966;2023-09-08T05:54:29;16.80;99.90
6106;DHT22;3083;51.508;7.966;2023-09-08T05:56:56;17.00;99.90
6106;DHT22;3083;51.508;7.966;2023-09-08T05:59:23;17.20;99.90
6106;DHT22;3083;51.508;7.966;2023-09-08T06:01:51;17.50;99.90
6106;DHT22;3083;51.508;7.966;2023-09-08T06:04:18;17.80;99.90
6106;DHT22;3083;51.508;7.966;2023-09-08T06:06:44;18.00;99.90
6106;DHT22;3083;51.508;7.966;2023-09-08T06:09:11;18.30;99.90
6106;DHT22;3083;51.508;7.966;2023-09-08T06:11:40;18.60;99.90
6106;DHT22;3083;51.508;7.966;2023-09-08T06:14:06;18.90;99.90
6106;DHT22;3083;51.508;7.966;2023-09-08T06:16:33;19.20;99.90
6106;DHT22;3083;51.508;7.966;2023-09-08T06:19:02;19.50;99.90
6106;DHT22;3083;51.508;7.966;2023-09-08T06:21:29;19.90;99.90
6106;DHT22;3083;51.508;7.966;2023-09-08T06:23:56;20.20;99.90
6106;DHT22;3083;51.508;7.966;2023-09-08T06:26:23;20.60;99.90
6106;DHT22;3083;51.508;7.966;2023-09-08T06:28:50;20.90;99.90
6106;DHT22;3083;51.508;7.966;2023-09-08T06:31:17;21.20;99.90
6106;DHT22;3083;51.508;7.966;2023-09-08T06:33:44;21.50;99.90
6106;DHT22;3083;51.508;7.966;2023-09-08T06:36:12;21.90;99.90
6106;DHT22;3083;51.508;7.966;2023-09-08T06:38:39;22.20;99.90
6106;DHT22;3083;51.508;7.966;2023-09-08T06:41:09;22.50;99.90
6106;DHT22;3083;51.508;7.966;2023-09-08T06:43:36;22.80;99.90
6106;DHT22;3083;51.508;7.966;2023-09-08T06:46:03;23.20;99.90
6106;DHT22;3083;51.508;7.966;2023-09-08T06:48:30;23.50;99.90
6106;DHT22;3083;51.508;7.966;2023-09-08T06:50:57;23.80;99.90
6106;DHT22;3083;51.508;7.966;2023-09-08T06:53:26;24.20;99.90
6106;DHT22;3083;51.508;7.966;2023-09-08T06:55:52;24.50;99.90
6106;DHT22;3083;51.508;7.966;2023-09-08T06:58:19;24.70;99.90
6106;DHT22;3083;51.508;7.966;2023-09-08T07:00:46;25.00;99.90
6106;DHT22;3083;51.508;7.966;2023-09-08T07:03:15;25.10;99.90
6106;DHT22;3083;51.508;7.966;2023-09-08T07:05:42;25.20;99.90
6106;DHT22;3083;51.508;7.966;2023-09-08T07:08:08;25.30;99.90
6106;DHT22;3083;51.508;7.966;2023-09-08T07:10:37;25.40;99.90
6106;DHT22;3083;51.508;7.966;2023-09-08T07:13:04;25.50;99.90
6106;DHT22;3083;51.508;7.966;2023-09-08T07:15:30;25.60;99.90
6106;DHT22;3083;51.508;7.966;2023-09-08T07:17:57;25.70;99.90
6106;DHT22;3083;51.508;7.966;2023-09-08T07:20:24;26.00;99.90
6106;DHT22;3083;51.508;7.966;2023-09-08T07:22:51;26.20;99.90
6106;DHT22;3083;51.508;7.966;2023-09-08T07:25:18;26.30;99.90
6106;DHT22;3083;51.508;7.966;2023-09-08T07:27:46;26.50;99.90
6106;DHT22;3083;51.508;7.966;2023-09-08T07:30:13;26.70;99.90
6106;DHT22;3083;51.508;7.966;2023-09-08T07:32:40;26.80;99.90
6106;DHT22;3083;51.508;7.966;2023-09-08T07:35:07;27.00;99.90
6106;DHT22;3083;51.508;7.966;2023-09-08T07:37:39;27.20;99.90
6106;DHT22;3083;51.508;7.966;2023-09-08T07:40:08;27.40;99.90
6106;DHT22;3083;51.508;7.966;2023-09-08T07:42:35;27.70;99.90
6106;DHT22;3083;51.508;7.966;2023-09-08T07:45:04;28.10;99.90
6106;DHT22;3083;51.508;7.966;2023-09-08T07:47:31;28.40;99.90
6106;DHT22;3083;51.508;7.966;2023-09-08T07:50:16;28.70;99.90
6106;DHT22;3083;51.508;7.966;2023-09-08T07:52:44;29.00;99.90
6106;DHT22;3083;51.508;7.966;2023-09-08T07:55:10;29.10;99.90
6106;DHT22;3083;51.508;7.966;2023-09-08T07:57:37;29.30;99.90
6106;DHT22;3083;51.508;7.966;2023-09-08T08:00:07;29.50;99.90
6106;DHT22;3083;51.508;7.966;2023-09-08T08:02:36;29.60;99.90
6106;DHT22;3083;51.508;7.966;2023-09-08T08:05:04;29.80;99.90
6106;DHT22;3083;51.508;7.966;2023-09-08T08:07:31;29.90;99.90
6106;DHT22;3083;51.508;7.966;2023-09-08T08:09:58;30.00;99.90
6106;DHT22;3083;51.508;7.966;2023-09-08T08:12:25;30.20;99.90
6106;DHT22;3083;51.508;7.966;2023-09-08T08:14:52;30.30;99.90
6106;DHT22;3083;51.508;7.966;2023-09-08T08:17:21;30.50;99.90
6106;DHT22;3083;51.508;7.966;2023-09-08T08:19:48;30.60;99.90
6106;DHT22;3083;51.508;7.966;2023-09-08T08:22:16;30.70;99.90
6106;DHT22;3083;51.508;7.966;2023-09-08T08:24:42;30.80;99.90
6106;DHT22;3083;51.508;7.966;2023-09-08T08:27:10;30.80;99.90
6106;DHT22;3083;51.508;7.966;2023-09-08T08:29:37;30.80;99.90
6106;DHT22;3083;51.508;7.966;2023-09-08T08:32:04;30.80;99.90
6106;DHT22;3083;51.508;7.966;2023-09-08T08:34:32;30.80;99.90
6106;DHT22;3083;51.508;7.966;2023-09-08T08:36:59;30.80;99.90
6106;DHT22;3083;51.508;7.966;2023-09-08T08:39:26;30.70;99.90
6106;DHT22;3083;51.508;7.966;2023-09-08T08:41:54;30.50;99.90
6106;DHT22;3083;51.508;7.966;2023-09-08T08:44:22;30.30;99.90
6106;DHT22;3083;51.508;7.966;2023-09-08T08:46:50;30.10;99.90
6106;DHT22;3083;51.508;7.966;2023-09-08T08:49:18;29.90;99.90
6106;DHT22;3083;51.508;7.966;2023-09-08T08:51:48;29.70;99.90
6106;DHT22;3083;51.508;7.966;2023-09-08T08:54:16;29.60;99.90
6106;DHT22;3083;51.508;7.966;2023-09-08T08:56:44;29.60;99.90
6106;DHT22;3083;51.508;7.966;2023-09-08T08:59:11;29.60;99.90
6106;DHT22;3083;51.508;7.966;2023-09-08T09:01:39;29.70;99.90
6106;DHT22;3083;51.508;7.966;2023-09-08T09:04:08;29.70;99.90
6106;DHT22;3083;51.508;7.966;2023-09-08T09:06:36;29.80;99.90
6106;DHT22;3083;51.508;7.966;2023-09-08T09:09:04;29.80;99.90
6106;DHT22;3083;51.508;7.966;2023-09-08T09:11:33;29.80;99.90
6106;DHT22;3083;51.508;7.966;2023-09-08T09:14:00;29.90;99.90
6106;DHT22;3083;51.508;7.966;2023-09-08T09:16:28;29.90;99.90
6106;DHT22;3083;51.508;7.966;2023-09-08T09:18:56;30.00;99.90
6106;DHT22;3083;51.508;7.966;2023-09-08T09:21:23;30.10;99.90
6106;DHT22;3083;51.508;7.966;2023-09-08T09:23:50;30.20;99.90
6106;DHT22;3083;51.508;7.966;2023-09-08T09:26:25;30.30;99.90
6106;DHT22;3083;51.508;7.966;2023-09-08T09:28:52;30.20;99.90
6106;DHT22;3083;51.508;7.966;2023-09-08T09:31:23;30.00;99.90
6106;DHT22;3083;51.508;7.966;2023-09-08T09:34:01;30.00;99.90
6106;DHT22;3083;51.508;7.966;2023-09-08T09:36:29;30.00;99.90
6106;DHT22;3083;51.508;7.966;2023-09-08T09:38:58;30.20;99.90
6106;DHT22;3083;51.508;7.966;2023-09-08T09:41:29;30.40;99.90
6106;DHT22;3083;51.508;7.966;2023-09-08T09:43:56;30.60;99.90
6106;DHT22;3083;51.508;7.966;2023-09-08T09:46:23;30.60;99.90
6106;DHT22;3083;51.508;7.966;2023-09-08T09:48:51;30.60;99.90
6106;DHT22;3083;51.508;7.966;2023-09-08T09:51:19;30.80;99.90
6106;DHT22;3083;51.508;7.966;2023-09-08T09:53:46;30.90;99.90
6106;DHT22;3083;51.508;7.966;2023-09-08T09:56:15;30.90;99.90
6106;DHT22;3083;51.508;7.966;2023-09-08T09:58:44;30.90;99.90
6106;DHT22;3083;51.508;7.966;2023-09-08T10:01:13;30.90;99.90
6106;DHT22;3083;51.508;7.966;2023-09-08T10:03:40;31.00;99.90
6106;DHT22;3083;51.508;7.966;2023-09-08T10:06:07;31.20;99.90
6106;DHT22;3083;51.508;7.966;2023-09-08T10:08:35;31.30;99.90
6106;DHT22;3083;51.508;7.966;2023-09-08T10:11:05;31.40;99.90
6106;DHT22;3083;51.508;7.966;2023-09-08T10:13:39;31.50;99.90
6106;DHT22;3083;51.508;7.966;2023-09-08T10:16:08;31.70;99.90
6106;DHT22;3083;51.508;7.966;2023-09-08T10:18:35;31.80;99.90
6106;DHT22;3083;51.508;7.966;2023-09-08T10:21:04;31.70;99.90
6106;DHT22;3083;51.508;7.966;2023-09-08T10:23:36;31.60;99.90
6106;DHT22;3083;51.508;7.966;2023-09-08T10:26:06;31.60;99.90
6106;DHT22;3083;51.508;7.966;2023-09-08T10:28:36;31.70;99.90
6106;DHT22;3083;51.508;7.966;2023-09-08T10:31:04;31.70;99.90
6106;DHT22;3083;51.508;7.966;2023-09-08T10:33:34;31.70;99.90
6106;DHT22;3083;51.508;7.966;2023-09-08T10:36:03;31.80;99.90
6106;DHT22;3083;51.508;7.966;2023-09-08T10:38:32;31.90;99.90
6106;DHT22;3083;51.508;7.966;2023-09-08T10:41:26;31.80;99.90
6106;DHT22;3083;51.508;7.966;2023-09-08T10:43:58;31.80;99.90
6106;DHT22;3083;51.508;7.966;2023-09-08T10:46:28;31.80;99.90
6106;DHT22;3083;51.508;7.966;2023-09-08T10:49:02;31.80;99.90
6106;DHT22;3083;51.508;7.966;2023-09-08T10:51:30;31.70;99.90
6106;DHT22;3083;51.508;7.966;2023-09-08T10:53:56;31.60;99.90
6106;DHT22;3083;51.508;7.966;2023-09-08T10:56:29;31.60;99.90
6106;DHT22;3083;51.508;7.966;2023-09-08T10:59:14;31.70;99.90
6106;DHT22;3083;51.508;7.966;2023-09-08T11:01:41;31.90;99.90
6106;DHT22;3083;51.508;7.966;2023-09-08T11:04:11;32.10;99.90
6106;DHT22;3083;51.508;7.966;2023-09-08T11:06:38;32.00;99.90
6106;DHT22;3083;51.508;7.966;2023-09-08T11:09:06;31.90;99.90
6106;DHT22;3083;51.508;7.966;2023-09-08T11:11:33;32.00;99.90
6106;DHT22;3083;51.508;7.966;2023-09-08T11:14:02;32.10;99.90
6106;DHT22;3083;51.508;7.966;2023-09-08T11:16:29;32.20;99.90
6106;DHT22;3083;51.508;7.966;2023-09-08T11:18:58;32.20;99.90
6106;DHT22;3083;51.508;7.966;2023-09-08T11:21:28;32.30;99.90
6106;DHT22;3083;51.508;7.966;2023-09-08T11:24:00;32.40;99.90
6106;DHT22;3083;51.508;7.966;2023-09-08T11:26:27;32.50;99.90
6106;DHT22;3083;51.508;7.966;2023-09-08T11:28:54;32.70;99.90
6106;DHT22;3083;51.508;7.966;2023-09-08T11:31:22;32.70;99.90
6106;DHT22;3083;51.508;7.966;2023-09-08T11:33:49;32.70;99.90
6106;DHT22;3083;51.508;7.966;2023-09-08T11:36:16;32.70;99.90
6106;DHT22;3083;51.508;7.966;2023-09-08T11:38:46;32.70;99.90
6106;DHT22;3083;51.508;7.966;2023-09-08T11:41:13;32.60;99.90
6106;DHT22;3083;51.508;7.966;2023-09-08T11:43:40;32.50;99.90
6106;DHT22;3083;51.508;7.966;2023-09-08T11:46:07;32.50;99.90
6106;DHT22;3083;51.508;7.966;2023-09-08T11:48:36;32.50;99.90
6106;DHT22;3083;51.508;7.966;2023-09-08T11:51:03;32.50;99.90
6106;DHT22;3083;51.508;7.966;2023-09-08T11:53:33;32.50;99.90
6106;DHT22;3083;51.508;7.966;2023-09-08T11:56:01;32.60;99.90
6106;DHT22;3083;51.508;7.966;2023-09-08T11:58:29;32.50;99.90
6106;DHT22;3083;51.508;7.966;2023-09-08T12:00:56;32.50;99.90
6106;DHT22;3083;51.508;7.966;2023-09-08T12:03:24;32.50;99.90
6106;DHT22;3083;51.508;7.966;2023-09-08T12:05:52;32.50;99.90
6106;DHT22;3083;51.508;7.966;2023-09-08T12:08:19;32.60;99.90
6106;DHT22;3083;51.508;7.966;2023-09-08T12:10:46;32.50;99.90
6106;DHT22;3083;51.508;7.966;2023-09-08T12:13:20;32.40;99.90
6106;DHT22;3083;51.508;7.966;2023-09-08T12:15:47;32.40;99.90
6106;DHT22;3083;51.508;7.966;2023-09-08T12:18:14;32.40;99.90
6106;DHT22;3083;51.508;7.966;2023-09-08T12:20:42;32.50;99.90
6106;DHT22;3083;51.508;7.966;2023-09-08T12:23:16;32.50;99.90
6106;DHT22;3083;51.508;7.966;2023-09-08T12:25:45;32.60;99.90
6106;DHT22;3083;51.508;7.966;2023-09-08T12:28:13;32.60;99.90
6106;DHT22;3083;51.508;7.966;2023-09-08T12:30:40;32.70;99.90
6106;DHT22;3083;51.508;7.966;2023-09-08T12:33:07;32.70;99.90
6106;DHT22;3083;51.508;7.966;2023-09-08T12:35:35;32.70;99.90
6106;DHT22;3083;51.508;7.966;2023-09-08T12:38:03;32.70;99.90
6106;DHT22;3083;51.508;7.966;2023-09-08T12:40:33;32.70;99.90
6106;DHT22;3083;51.508;7.966;2023-09-08T12:43:04;32.70;99.90
6106;DHT22;3083;51.508;7.966;2023-09-08T12:45:32;32.70;99.90
6106;DHT22;3083;51.508;7.966;2023-09-08T12:48:01;32.70;99.90
6106;DHT22;3083;51.508;7.966;2023-09-08T12:50:29;32.80;99.90
6106;DHT22;3083;51.508;7.966;2023-09-08T12:52:56;32.80;99.90
6106;DHT22;3083;51.508;7.966;2023-09-08T12:55:24;32.90;99.90
6106;DHT22;3083;51.508;7.966;2023-09-08T12:57:51;32.80;99.90
6106;DHT22;3083;51.508;7.966;2023-09-08T13:00:20;32.80;99.90
6106;DHT22;3083;51.508;7.966;2023-09-08T13:02:49;32.80;99.90
6106;DHT22;3083;51.508;7.966;2023-09-08T13:05:16;32.70;99.90
6106;DHT22;3083;51.508;7.966;2023-09-08T13:07:43;32.70;99.90
6106;DHT22;3083;51.508;7.966;2023-09-08T13:10:10;32.80;99.90
6106;DHT22;3083;51.508;7.966;2023-09-08T13:12:37;32.70;99.90
6106;DHT22;3083;51.508;7.966;2023-09-08T13:15:05;32.70;99.90
6106;DHT22;3083;51.508;7.966;2023-09-08T13:17:32;32.70;99.90
6106;DHT22;3083;51.508;7.966;2023-09-08T13:20:01;32.70;99.90
6106;DHT22;3083;51.508;7.966;2023-09-08T13:22:28;32.70;99.90
6106;DHT22;3083;51.508;7.966;2023-09-08T13:24:55;32.70;99.90
6106;DHT22;3083;51.508;7.966;2023-09-08T13:27:22;32.70;99.90
6106;DHT22;3083;51.508;7.966;2023-09-08T13:29:49;32.70;99.90
6106;DHT22;3083;51.508;7.966;2023-09-08T13:32:16;32.70;99.90
6106;DHT22;3083;51.508;7.966;2023-09-08T13:34:43;32.70;99.90
6106;DHT22;3083;51.508;7.966;2023-09-08T13:37:12;32.70;99.90
6106;DHT22;3083;51.508;7.966;2023-09-08T13:39:40;32.70;99.90
6106;DHT22;3083;51.508;7.966;2023-09-08T13:42:08;32.70;99.90
6106;DHT22;3083;51.508;7.966;2023-09-08T13:44:35;32.70;99.90
6106;DHT22;3083;51.508;7.966;2023-09-08T13:47:02;32.70;99.90
6106;DHT22;3083;51.508;7.966;2023-09-08T13:49:30;32.70;99.90
6106;DHT22;3083;51.508;7.966;2023-09-08T13:51:59;32.60;99.90
6106;DHT22;3083;51.508;7.966;2023-09-08T13:54:27;32.60;99.90
6106;DHT22;3083;51.508;7.966;2023-09-08T13:56:59;32.60;99.90
6106;DHT22;3083;51.508;7.966;2023-09-08T13:59:27;32.60;99.90
6106;DHT22;3083;51.508;7.966;2023-09-08T14:01:55;32.50;99.90
6106;DHT22;3083;51.508;7.966;2023-09-08T14:04:23;32.50;99.90
6106;DHT22;3083;51.508;7.966;2023-09-08T14:06:49;32.50;99.90
6106;DHT22;3083;51.508;7.966;2023-09-08T14:09:16;32.50;99.90
6106;DHT22;3083;51.508;7.966;2023-09-08T14:11:45;32.50;99.90
6106;DHT22;3083;51.508;7.966;2023-09-08T14:14:12;32.50;99.90
6106;DHT22;3083;51.508;7.966;2023-09-08T14:16:39;32.40;99.90
6106;DHT22;3083;51.508;7.966;2023-09-08T14:19:05;32.40;99.90
6106;DHT22;3083;51.508;7.966;2023-09-08T14:21:32;32.40;99.90
6106;DHT22;3083;51.508;7.966;2023-09-08T14:23:59;32.40;99.90
6106;DHT22;3083;51.508;7.966;2023-09-08T14:26:26;32.40;99.90
6106;DHT22;3083;51.508;7.966;2023-09-08T14:28:54;32.30;99.90
6106;DHT22;3083;51.508;7.966;2023-09-08T14:31:21;32.30;99.90
6106;DHT22;3083;51.508;7.966;2023-09-08T14:33:48;32.20;99.90
6106;DHT22;3083;51.508;7.966;2023-09-08T14:36:17;32.20;99.90
6106;DHT22;3083;51.508;7.966;2023-09-08T14:38:45;32.10;99.90
6106;DHT22;3083;51.508;7.966;2023-09-08T14:41:12;32.00;99.90
6106;DHT22;3083;51.508;7.966;2023-09-08T14:43:39;32.00;99.90
6106;DHT22;3083;51.508;7.966;2023-09-08T14:46:08;31.90;99.90
6106;DHT22;3083;51.508;7.966;2023-09-08T14:48:35;31.80;99.90
6106;DHT22;3083;51.508;7.966;2023-09-08T14:51:02;31.80;99.90
6106;DHT22;3083;51.508;7.966;2023-09-08T14:53:30;31.70;99.90
6106;DHT22;3083;51.508;7.966;2023-09-08T14:55:57;31.70;99.90
6106;DHT22;3083;51.508;7.966;2023-09-08T14:58:24;31.70;99.90
6106;DHT22;3083;51.508;7.966;2023-09-08T15:00:57;31.70;99.90
6106;DHT22;3083;51.508;7.966;2023-09-08T15:03:26;31.60;99.90
6106;DHT22;3083;51.508;7.966;2023-09-08T15:05:53;31.60;99.90
6106;DHT22;3083;51.508;7.966;2023-09-08T15:08:20;31.50;99.90
6106;DHT22;3083;51.508;7.966;2023-09-08T15:10:47;31.50;99.90
6106;DHT22;3083;51.508;7.966;2023-09-08T15:13:13;31.40;99.90
6106;DHT22;3083;51.508;7.966;2023-09-08T15:15:40;31.40;99.90
6106;DHT22;3083;51.508;7.966;2023-09-08T15:18:07;31.20;99.90
6106;DHT22;3083;51.508;7.966;2023-09-08T15:20:35;31.20;99.90
6106;DHT22;3083;51.508;7.966;2023-09-08T15:23:02;31.10;99.90
6106;DHT22;3083;51.508;7.966;2023-09-08T15:25:29;31.00;99.90
6106;DHT22;3083;51.508;7.966;2023-09-08T15:27:56;31.00;99.90
6106;DHT22;3083;51.508;7.966;2023-09-08T15:30:23;30.90;99.90
6106;DHT22;3083;51.508;7.966;2023-09-08T15:32:50;30.80;99.90
6106;DHT22;3083;51.508;7.966;2023-09-08T15:35:17;30.70;99.90
6106;DHT22;3083;51.508;7.966;2023-09-08T15:37:45;30.70;99.90
6106;DHT22;3083;51.508;7.966;2023-09-08T15:40:12;30.60;99.90
6106;DHT22;3083;51.508;7.966;2023-09-08T15:42:40;30.50;99.90
6106;DHT22;3083;51.508;7.966;2023-09-08T15:45:07;30.40;99.90
6106;DHT22;3083;51.508;7.966;2023-09-08T15:47:35;30.40;99.90
6106;DHT22;3083;51.508;7.966;2023-09-08T15:50:02;30.30;99.90
6106;DHT22;3083;51.508;7.966;2023-09-08T15:52:33;30.30;99.90
6106;DHT22;3083;51.508;7.966;2023-09-08T15:55:01;30.20;99.90
6106;DHT22;3083;51.508;7.966;2023-09-08T15:57:28;30.20;99.90
6106;DHT22;3083;51.508;7.966;2023-09-08T15:59:54;30.10;99.90
6106;DHT22;3083;51.508;7.966;2023-09-08T16:02:21;30.00;99.90
6106;DHT22;3083;51.508;7.966;2023-09-08T16:04:48;29.90;99.90